createdAt,value
2023-04-22T00:00:19.640Z,3.63
2023-04-22T00:02:51.694Z,6.07
2023-04-22T00:05:24.638Z,4.88
2023-04-22T00:07:53.708Z,3.08
2023-04-22T00:10:23.853Z,2.92
2023-04-22T00:12:53.081Z,3.38
2023-04-22T00:15:23.081Z,5.38
2023-04-22T00:17:54.809Z,3.50
2023-04-22T00:20:33.706Z,4.43
2023-04-22T00:23:05.638Z,4.63
2023-04-22T00:28:51.580Z,3.72
2023-04-22T00:31:35.246Z,2.85
2023-04-22T00:34:13.267Z,4.13
2023-04-22T00:36:44.914Z,3.90
2023-04-22T00:39:48.189Z,4.63
2023-04-22T00:42:39.225Z,4.55
2023-04-22T00:45:12.704Z,3.45
2023-04-22T00:47:49.619Z,3.72
2023-04-22T00:53:13.732Z,3.00
2023-04-22T00:56:01.755Z,3.35
2023-04-22T00:58:47.365Z,3.60
2023-04-22T01:01:20.991Z,3.60
2023-04-22T01:03:51.655Z,4.63
2023-04-22T01:06:21.740Z,3.08
2023-04-22T01:08:55.252Z,5.45
2023-04-22T01:11:25.340Z,4.25
2023-04-22T01:13:54.243Z,4.35
2023-04-22T01:16:25.486Z,3.80
2023-04-22T01:18:56.647Z,4.30
2023-04-22T01:21:28.984Z,3.40
2023-04-22T01:23:57.945Z,4.03
2023-04-22T01:26:27.561Z,3.85
2023-04-22T01:28:57.044Z,4.63
2023-04-22T01:31:26.458Z,4.18
2023-04-22T01:33:56.843Z,3.28
2023-04-22T01:36:26.760Z,3.28
2023-04-22T01:38:57.760Z,3.92
2023-04-22T01:41:29.525Z,4.50
2023-04-22T01:44:05.521Z,3.95
2023-04-22T01:46:37.100Z,3.88
2023-04-22T01:49:07.209Z,3.50
2023-04-22T01:51:35.944Z,5.72
2023-04-22T01:54:06.369Z,6.25
2023-04-22T01:56:42.365Z,5.20
2023-04-22T01:59:17.820Z,3.83
2023-04-22T02:01:49.341Z,4.03
2023-04-22T02:06:50.226Z,3.30
2023-04-22T02:09:20.216Z,4.03
2023-04-22T02:11:49.377Z,4.25
2023-04-22T02:14:18.045Z,5.30
2023-04-22T02:16:48.788Z,4.10
2023-04-22T02:19:19.454Z,3.22
2023-04-22T02:21:49.550Z,3.28
2023-04-22T02:26:52.532Z,4.15
2023-04-22T02:29:22.044Z,3.97
2023-04-22T02:31:51.802Z,3.65
2023-04-22T02:34:22.342Z,3.85
2023-04-22T02:36:51.719Z,3.38
2023-04-22T02:39:21.984Z,3.30
2023-04-22T02:41:53.201Z,4.03
2023-04-22T02:44:21.845Z,4.85
2023-04-22T02:46:51.802Z,5.82
2023-04-22T02:49:21.144Z,4.38
2023-04-22T02:51:49.543Z,4.38
2023-04-22T02:54:18.274Z,3.50
2023-04-22T02:56:48.435Z,4.75
2023-04-22T02:59:17.700Z,4.00
2023-04-22T03:01:48.284Z,6.65
2023-04-22T03:04:32.070Z,5.75
2023-04-22T03:07:01.858Z,5.07
2023-04-22T03:09:31.857Z,3.67
2023-04-22T03:12:01.670Z,4.65
2023-04-22T03:14:31.626Z,4.55
2023-04-22T03:17:01.663Z,4.25
2023-04-22T03:19:33.285Z,4.00
2023-04-22T03:22:01.602Z,4.57
2023-04-22T03:24:34.448Z,4.93
2023-04-22T03:27:08.938Z,3.22
2023-04-22T03:29:38.186Z,4.68
2023-04-22T03:32:08.096Z,4.68
2023-04-22T03:34:38.014Z,3.83
2023-04-22T03:37:10.970Z,4.60
2023-04-22T03:39:41.075Z,3.85
2023-04-22T03:42:15.310Z,3.55
2023-04-22T03:44:48.911Z,4.03
2023-04-22T03:47:21.874Z,4.60
2023-04-22T03:49:55.605Z,5.22
2023-04-22T03:52:25.229Z,5.28
2023-04-22T03:55:00.546Z,5.70
2023-04-22T03:57:29.570Z,3.92
2023-04-22T04:00:01.119Z,3.38
2023-04-22T04:02:33.798Z,5.07
2023-04-22T04:05:05.020Z,3.85
2023-04-22T04:07:34.271Z,3.60
2023-04-22T04:10:05.680Z,5.60
2023-04-22T04:12:35.644Z,3.80
2023-04-22T04:15:05.230Z,4.20
2023-04-22T04:17:35.965Z,3.88
2023-04-22T04:20:08.054Z,3.30
2023-04-22T04:22:38.633Z,6.38
2023-04-22T04:25:09.236Z,4.97
2023-04-22T04:27:47.372Z,5.72
2023-04-22T04:30:18.445Z,5.50
2023-04-22T04:32:55.655Z,4.28
2023-04-22T04:35:27.800Z,5.80
2023-04-22T04:37:58.144Z,6.38
2023-04-22T04:40:30.379Z,4.38
2023-04-22T04:43:20.538Z,5.55
2023-04-22T04:45:54.558Z,8.90
2023-04-22T04:48:30.441Z,6.35
2023-04-22T04:51:08.028Z,7.32
2023-04-22T04:53:49.740Z,8.82
2023-04-22T04:56:20.198Z,8.57
2023-04-22T04:58:49.673Z,12.52
2023-04-22T05:01:25.342Z,10.82
2023-04-22T05:03:56.025Z,11.02
2023-04-22T05:06:30.444Z,12.20
2023-04-22T05:09:09.585Z,9.38
2023-04-22T05:11:41.819Z,10.48
2023-04-22T05:14:22.503Z,11.55
2023-04-22T05:16:53.573Z,9.75
2023-04-22T05:19:24.026Z,10.45
2023-04-22T05:21:57.663Z,10.23
2023-04-22T05:24:27.836Z,9.90
2023-04-22T05:26:59.998Z,11.13
2023-04-22T05:29:29.318Z,10.32
2023-04-22T05:32:01.141Z,10.32
2023-04-22T05:34:37.697Z,13.77
2023-04-22T05:37:10.084Z,9.60
2023-04-22T05:39:48.741Z,12.27
2023-04-22T05:42:21.201Z,10.40
2023-04-22T05:44:52.725Z,11.77
2023-04-22T05:47:22.216Z,10.80
2023-04-22T05:49:54.794Z,10.35
2023-04-22T05:52:38.448Z,12.03
2023-04-22T05:55:17.706Z,12.15
2023-04-22T05:57:52.355Z,13.07
2023-04-22T06:00:40.685Z,10.10
2023-04-22T06:03:36.330Z,11.85
2023-04-22T06:06:07.474Z,9.88
2023-04-22T06:08:37.939Z,11.32
2023-04-22T06:11:07.999Z,10.07
2023-04-22T06:13:38.901Z,11.63
2023-04-22T06:16:09.779Z,12.10
2023-04-22T06:18:45.666Z,12.68
2023-04-22T06:21:14.279Z,9.75
2023-04-22T06:23:47.903Z,10.80
2023-04-22T06:26:17.938Z,10.77
2023-04-22T06:28:49.100Z,12.07
2023-04-22T06:31:21.616Z,9.55
2023-04-22T06:33:51.869Z,12.43
2023-04-22T06:36:22.049Z,11.82
2023-04-22T06:38:56.679Z,11.57
2023-04-22T06:41:40.146Z,11.48
2023-04-22T06:44:23.825Z,11.77
2023-04-22T06:47:31.724Z,11.75
2023-04-22T06:52:41.562Z,11.00
2023-04-22T06:55:10.741Z,12.90
2023-04-22T06:57:40.829Z,11.88
2023-04-22T07:00:10.237Z,10.60
2023-04-22T07:02:42.484Z,11.48
2023-04-22T07:05:14.303Z,10.73
2023-04-22T07:07:48.310Z,12.52
2023-04-22T07:10:24.810Z,12.13
2023-04-22T07:13:21.474Z,13.77
2023-04-22T07:15:52.142Z,11.82
2023-04-22T07:18:21.400Z,10.50
2023-04-22T07:20:50.340Z,14.05
2023-04-22T07:23:20.978Z,11.65
2023-04-22T07:25:50.126Z,10.18
2023-04-22T07:28:19.941Z,11.10
2023-04-22T07:30:55.826Z,12.95
2023-04-22T07:33:28.745Z,12.95
2023-04-22T07:35:58.104Z,11.27
2023-04-22T07:38:30.576Z,12.43
2023-04-22T07:41:02.746Z,12.05
2023-04-22T07:43:32.401Z,11.40
2023-04-22T07:46:02.467Z,14.70
2023-04-22T07:48:33.884Z,11.98
2023-04-22T07:51:05.091Z,11.43
2023-04-22T07:53:36.561Z,11.32
2023-04-22T07:56:06.968Z,11.38
2023-04-22T07:58:38.784Z,11.10
2023-04-22T08:01:12.187Z,11.18
2023-04-22T08:03:47.731Z,10.85
2023-04-22T08:06:25.189Z,11.70
2023-04-22T08:08:54.079Z,12.52
2023-04-22T08:11:24.887Z,11.75
2023-04-22T08:13:56.341Z,13.05
2023-04-22T08:16:26.517Z,11.05
2023-04-22T08:18:58.486Z,11.40
2023-04-22T08:21:30.062Z,10.95
2023-04-22T08:24:01.155Z,12.57
2023-04-22T08:26:33.766Z,12.38
2023-04-22T08:29:11.835Z,12.70
2023-04-22T08:31:42.050Z,11.40
2023-04-22T08:34:16.547Z,12.18
2023-04-22T08:36:48.505Z,10.55
2023-04-22T08:39:19.756Z,12.77
2023-04-22T08:41:51.864Z,11.48
2023-04-22T08:44:21.861Z,11.40
2023-04-22T08:46:53.862Z,11.07
2023-04-22T08:49:26.343Z,10.20
2023-04-22T08:51:57.269Z,10.48
2023-04-22T08:54:26.742Z,11.23
2023-04-22T08:56:57.668Z,10.93
2023-04-22T08:59:26.547Z,10.18
2023-04-22T09:01:59.374Z,11.18
2023-04-22T09:04:30.275Z,11.38
2023-04-22T09:07:02.811Z,11.60
2023-04-22T09:09:33.501Z,12.82
2023-04-22T09:12:02.334Z,11.00
2023-04-22T09:14:33.686Z,11.43
2023-04-22T09:17:04.780Z,13.15
2023-04-22T09:19:47.802Z,11.02
2023-04-22T09:22:20.185Z,10.85
2023-04-22T09:24:52.894Z,10.88
2023-04-22T09:27:28.357Z,9.73
2023-04-22T09:29:57.668Z,11.20
2023-04-22T09:32:30.410Z,11.00
2023-04-22T09:34:59.884Z,9.50
2023-04-22T09:37:46.315Z,9.23
2023-04-22T09:40:21.495Z,9.98
2023-04-22T09:42:53.055Z,10.43
2023-04-22T09:45:38.944Z,11.52
2023-04-22T09:48:18.993Z,10.27
2023-04-22T09:50:52.023Z,11.45
2023-04-22T09:53:24.004Z,9.20
2023-04-22T09:55:57.439Z,10.18
2023-04-22T09:58:36.626Z,9.57
2023-04-22T10:01:09.037Z,10.13
2023-04-22T10:03:40.398Z,12.05
2023-04-22T10:06:10.365Z,11.02
2023-04-22T10:08:42.465Z,12.02
2023-04-22T10:11:13.662Z,11.73
2023-04-22T10:13:46.914Z,10.48
2023-04-22T10:16:25.379Z,10.50
2023-04-22T10:19:01.735Z,11.07
2023-04-22T10:21:33.108Z,11.13
2023-04-22T10:24:02.379Z,11.90
2023-04-22T10:26:47.243Z,12.30
2023-04-22T10:32:22.021Z,10.48
2023-04-22T10:35:07.926Z,10.45
2023-04-22T10:37:38.180Z,9.82
2023-04-22T10:40:23.993Z,9.13
2023-04-22T10:42:57.560Z,9.68
2023-04-22T10:45:28.125Z,9.15
2023-04-22T10:48:03.998Z,8.55
2023-04-22T10:50:34.416Z,10.00
2023-04-22T10:53:37.723Z,8.95
2023-04-22T10:56:21.247Z,9.68
2023-04-22T10:58:52.539Z,8.05
2023-04-22T11:01:21.565Z,7.82
2023-04-22T11:03:53.247Z,9.85
2023-04-22T11:06:23.408Z,9.32
2023-04-22T11:09:09.890Z,9.20
2023-04-22T11:11:40.099Z,8.43
2023-04-22T11:14:11.284Z,7.80
2023-04-22T11:16:52.930Z,7.10
2023-04-22T11:19:22.292Z,7.88
2023-04-22T11:21:52.749Z,7.50
2023-04-22T11:24:22.736Z,6.68
2023-04-22T11:26:57.337Z,9.55
2023-04-22T11:29:26.344Z,6.22
2023-04-22T11:31:58.634Z,6.68
2023-04-22T11:34:28.525Z,8.35
2023-04-22T11:36:59.677Z,6.03
2023-04-22T11:39:47.519Z,6.43
2023-04-22T11:42:25.781Z,7.57
2023-04-22T11:44:55.802Z,5.63
2023-04-22T11:47:25.134Z,6.03
2023-04-22T11:50:08.310Z,5.47
2023-04-22T11:52:56.620Z,5.95
2023-04-22T11:55:36.061Z,5.25
2023-04-22T11:58:12.697Z,7.38
2023-04-22T12:00:47.778Z,6.88
2023-04-22T12:03:18.465Z,6.00
2023-04-22T12:05:54.620Z,4.65
2023-04-22T12:08:28.064Z,6.18
2023-04-22T12:10:59.949Z,5.70
2023-04-22T12:13:33.848Z,5.07
2023-04-22T12:16:18.384Z,5.20
2023-04-22T12:18:57.192Z,4.57
2023-04-22T12:21:29.676Z,5.70
2023-04-22T12:24:05.069Z,4.20
2023-04-22T12:26:34.485Z,6.15
2023-04-22T12:29:09.105Z,4.45
2023-04-22T12:31:40.491Z,4.38
2023-04-22T12:34:09.584Z,4.28
2023-04-22T12:36:38.627Z,4.65
2023-04-22T12:39:09.488Z,4.40
2023-04-22T12:41:41.486Z,5.70
2023-04-22T12:44:14.901Z,4.15
2023-04-22T12:46:48.770Z,5.07
2023-04-22T12:49:20.243Z,4.63
2023-04-22T12:51:49.657Z,4.00
2023-04-22T12:54:21.529Z,4.45
2023-04-22T12:56:50.168Z,4.60
2023-04-22T12:59:21.467Z,3.05
2023-04-22T13:01:51.126Z,3.85
2023-04-22T13:04:22.210Z,3.20
2023-04-22T13:07:37.606Z,4.63
2023-04-22T13:10:10.311Z,4.00
2023-04-22T13:12:41.814Z,5.65
2023-04-22T13:15:13.346Z,3.90
2023-04-22T13:17:48.066Z,6.40
2023-04-22T13:20:21.848Z,4.25
2023-04-22T13:22:53.573Z,4.00
2023-04-22T13:26:23.912Z,3.67
2023-04-22T13:28:53.548Z,5.03
2023-04-22T13:31:22.150Z,3.50
2023-04-22T13:33:52.360Z,3.63
2023-04-22T13:36:21.992Z,3.53
2023-04-22T13:38:52.097Z,4.00
2023-04-22T13:41:21.632Z,3.72
2023-04-22T13:43:54.752Z,3.53
2023-04-22T13:46:54.584Z,3.47
2023-04-22T13:49:25.993Z,3.03
2023-04-22T13:51:56.367Z,3.40
2023-04-22T13:54:26.683Z,4.20
2023-04-22T13:56:56.712Z,3.83
2023-04-22T13:59:26.212Z,3.42
2023-04-22T14:01:56.114Z,4.40
2023-04-22T14:04:25.697Z,3.88
2023-04-22T14:06:56.147Z,3.65
2023-04-22T14:09:25.374Z,3.60
2023-04-22T14:11:54.737Z,4.13
2023-04-22T14:14:24.501Z,3.40
2023-04-22T14:16:56.853Z,3.10
2023-04-22T14:19:26.641Z,4.63
2023-04-22T14:21:57.728Z,4.68
2023-04-22T14:24:28.471Z,3.45
2023-04-22T14:27:02.119Z,3.10
2023-04-22T14:29:33.196Z,3.58
2023-04-22T14:32:02.757Z,3.83
2023-04-22T14:34:32.160Z,3.20
2023-04-22T14:37:01.615Z,2.75
2023-04-22T14:39:30.681Z,3.88
2023-04-22T14:42:01.620Z,4.07
2023-04-22T14:44:30.298Z,4.28
2023-04-22T14:47:01.616Z,2.90
2023-04-22T14:49:33.893Z,5.57
2023-04-22T14:52:07.982Z,4.10
2023-04-22T14:54:37.309Z,3.78
2023-04-22T14:57:06.603Z,3.95
2023-04-22T14:59:36.404Z,4.85
2023-04-22T15:02:06.824Z,3.85
2023-04-22T15:04:36.672Z,4.13
2023-04-22T15:07:08.096Z,3.38
2023-04-22T15:09:37.746Z,3.75
2023-04-22T15:12:06.522Z,3.92
2023-04-22T15:14:38.367Z,3.97
2023-04-22T15:17:08.163Z,4.55
2023-04-22T15:19:37.690Z,5.18
2023-04-22T15:22:06.655Z,3.95
2023-04-22T15:24:48.158Z,2.90
2023-04-22T15:27:20.273Z,2.58
2023-04-22T15:29:49.355Z,2.67
2023-04-22T15:32:19.142Z,5.28
2023-04-22T15:34:48.501Z,2.60
2023-04-22T15:37:18.574Z,3.22
2023-04-22T15:39:48.610Z,4.88
2023-04-22T15:42:20.308Z,2.67
2023-04-22T15:44:49.558Z,3.92
2023-04-22T15:47:20.335Z,3.15
2023-04-22T15:49:50.274Z,4.57
2023-04-22T15:52:20.514Z,4.18
2023-04-22T15:54:50.472Z,3.88
2023-04-22T15:57:25.243Z,3.45
2023-04-22T16:00:06.692Z,3.83
2023-04-22T16:02:54.194Z,2.47
2023-04-22T16:05:25.844Z,5.18
2023-04-22T16:07:56.388Z,2.97
2023-04-22T16:10:28.041Z,4.05
2023-04-22T16:12:58.008Z,2.60
2023-04-22T16:15:27.941Z,4.15
2023-04-22T16:17:58.649Z,4.50
2023-04-22T16:20:28.330Z,2.35
2023-04-22T16:22:58.308Z,4.65
2023-04-22T16:25:30.237Z,3.88
2023-04-22T16:28:02.533Z,2.80
2023-04-22T16:30:33.041Z,3.33
2023-04-22T16:33:04.178Z,4.07
2023-04-22T16:35:34.019Z,3.47
2023-04-22T16:38:04.063Z,2.97
2023-04-22T16:40:33.346Z,4.90
2023-04-22T16:43:05.885Z,2.70
2023-04-22T16:45:34.412Z,4.70
2023-04-22T16:48:06.867Z,3.47
2023-04-22T16:50:37.915Z,5.80
2023-04-22T16:53:10.256Z,3.55
2023-04-22T16:55:44.972Z,3.80
2023-04-22T16:58:15.207Z,3.40
2023-04-22T17:00:47.598Z,4.20
2023-04-22T17:03:17.919Z,3.38
2023-04-22T17:05:48.944Z,2.92
2023-04-22T17:08:18.344Z,3.72
2023-04-22T17:10:48.996Z,3.67
2023-04-22T17:13:17.960Z,3.47
2023-04-22T17:15:48.199Z,4.03
2023-04-22T17:18:20.280Z,2.90
2023-04-22T17:20:49.720Z,4.30
2023-04-22T17:23:21.652Z,3.35
2023-04-22T17:25:51.295Z,3.42
2023-04-22T17:28:22.688Z,3.00
2023-04-22T17:30:52.581Z,3.55
2023-04-22T17:33:21.761Z,3.65
2023-04-22T17:35:50.455Z,3.97
2023-04-22T17:38:21.016Z,3.03
2023-04-22T17:40:50.490Z,3.13
2023-04-22T17:43:20.896Z,4.32
2023-04-22T17:45:50.796Z,3.55
2023-04-22T17:48:21.792Z,4.28
2023-04-22T17:50:52.065Z,3.65
2023-04-22T17:53:21.361Z,4.25
2023-04-22T17:55:50.425Z,3.67
2023-04-22T17:58:20.720Z,3.13
2023-04-22T18:00:51.919Z,4.15
2023-04-22T18:03:22.484Z,4.55
2023-04-22T18:05:54.181Z,3.40
2023-04-22T18:08:24.193Z,2.78
2023-04-22T18:10:54.214Z,4.68
2023-04-22T18:13:24.869Z,3.67
2023-04-22T18:15:54.082Z,3.17
2023-04-22T18:18:25.627Z,2.17
2023-04-22T18:25:21.578Z,1.80
2023-04-22T18:27:56.218Z,2.60
2023-04-22T18:30:25.753Z,1.80
2023-04-22T18:32:55.337Z,1.40
2023-04-22T18:35:24.887Z,1.40
2023-04-22T18:37:58.396Z,1.33
2023-04-22T18:40:29.780Z,1.60
2023-04-22T18:43:00.145Z,1.75
2023-04-22T18:45:29.758Z,2.42
2023-04-22T18:47:59.755Z,1.95
2023-04-22T18:50:29.420Z,2.13
2023-04-22T18:52:58.275Z,2.22
2023-04-22T18:55:28.144Z,2.45
2023-04-22T18:57:57.750Z,1.45
2023-04-22T19:00:27.970Z,1.40
2023-04-22T19:02:58.115Z,1.42
2023-04-22T19:05:26.878Z,1.75
2023-04-22T19:07:57.217Z,2.00
2023-04-22T19:10:28.024Z,1.67
2023-04-22T19:12:57.997Z,1.27
2023-04-22T19:15:26.635Z,2.25
2023-04-22T19:17:56.285Z,1.40
2023-04-22T19:20:26.144Z,1.90
2023-04-22T19:22:56.496Z,1.30
2023-04-22T19:25:34.988Z,1.73
2023-04-22T19:28:08.411Z,1.58
2023-04-22T19:30:37.663Z,2.25
2023-04-22T19:33:09.949Z,2.53
2023-04-22T19:35:41.672Z,2.60
2023-04-22T19:38:12.228Z,1.17
2023-04-22T19:40:47.163Z,2.40
2023-04-22T19:43:20.596Z,1.33
2023-04-22T19:45:54.071Z,3.08
2023-04-22T19:48:25.732Z,1.65
2023-04-22T19:51:02.441Z,1.83
2023-04-22T19:53:36.957Z,1.90
2023-04-22T19:56:07.375Z,2.47
2023-04-22T19:58:37.620Z,1.95
2023-04-22T20:01:07.106Z,2.40
2023-04-22T20:03:38.705Z,1.92
2023-04-22T20:06:09.668Z,1.95
2023-04-22T20:08:42.880Z,0.93
2023-04-22T20:11:18.209Z,1.67
2023-04-22T20:13:52.536Z,1.70
2023-04-22T20:16:29.106Z,1.40
2023-04-22T20:18:58.308Z,1.27
2023-04-22T20:21:30.240Z,1.30
2023-04-22T20:24:02.655Z,2.28
2023-04-22T20:26:33.729Z,1.40
2023-04-22T20:29:04.456Z,2.00
2023-04-22T20:31:35.258Z,1.60
2023-04-22T20:34:05.955Z,2.33
2023-04-22T20:36:34.883Z,1.33
2023-04-22T20:39:06.020Z,1.73
2023-04-22T20:41:40.457Z,1.13
2023-04-22T20:46:41.069Z,1.10
2023-04-22T20:49:11.110Z,2.70
2023-04-22T20:51:41.427Z,2.30
2023-04-22T20:54:21.648Z,1.23
2023-04-22T20:56:58.274Z,2.15
2023-04-22T20:59:28.566Z,2.35
2023-04-22T21:01:58.916Z,1.80
2023-04-22T21:04:32.455Z,1.23
2023-04-22T21:07:05.464Z,1.20
2023-04-22T21:09:35.284Z,1.38
2023-04-22T21:12:05.575Z,2.72
2023-04-22T21:14:34.722Z,1.23
2023-04-22T21:17:26.535Z,2.63
2023-04-22T21:20:05.113Z,1.60
2023-04-22T21:22:38.739Z,1.75
2023-04-22T21:25:29.339Z,2.45
2023-04-22T21:27:58.989Z,1.58
2023-04-22T21:30:34.752Z,1.90
2023-04-22T21:33:08.332Z,1.70
2023-04-22T21:35:42.873Z,1.77
2023-04-22T21:38:23.087Z,1.25
2023-04-22T21:41:05.325Z,1.77
2023-04-22T21:43:34.902Z,1.67
2023-04-22T21:46:09.735Z,1.50
2023-04-22T21:48:39.029Z,1.50
2023-04-22T21:51:18.973Z,1.75
2023-04-22T21:53:55.600Z,1.63
2023-04-22T21:57:03.405Z,2.63
2023-04-22T21:59:33.889Z,1.33
2023-04-22T22:02:06.804Z,1.33
2023-04-22T22:04:36.742Z,1.77
2023-04-22T22:07:08.343Z,1.85
2023-04-22T22:09:37.729Z,1.67
2023-04-22T22:12:10.170Z,2.78
2023-04-22T22:14:51.404Z,1.42
2023-04-22T22:18:10.022Z,1.77
2023-04-22T22:20:40.453Z,1.40
2023-04-22T22:23:10.346Z,2.70
2023-04-22T22:25:44.707Z,1.63
2023-04-22T22:28:18.531Z,3.08
2023-04-22T22:30:48.339Z,1.52
2023-04-22T22:33:18.439Z,1.55
2023-04-22T22:35:49.383Z,2.17
2023-04-22T22:38:18.898Z,1.73
2023-04-22T22:40:49.725Z,1.83
2023-04-22T22:43:18.920Z,1.10
2023-04-22T22:45:52.515Z,1.67
2023-04-22T22:48:22.721Z,1.33
2023-04-22T22:50:55.091Z,1.38
2023-04-22T22:53:37.136Z,1.80
2023-04-22T22:56:08.471Z,2.15
2023-04-22T22:58:38.836Z,1.25
2023-04-22T23:01:10.294Z,1.30
2023-04-22T23:03:45.806Z,1.27
2023-04-22T23:06:26.174Z,1.52
2023-04-22T23:09:01.834Z,1.20
2023-04-22T23:11:33.241Z,1.30
2023-04-22T23:14:04.746Z,3.08
2023-04-22T23:16:39.246Z,1.38
2023-04-22T23:19:19.069Z,1.40
2023-04-22T23:22:24.661Z,1.40
2023-04-22T23:24:54.645Z,1.75
2023-04-22T23:27:32.203Z,1.23
2023-04-22T23:30:09.174Z,1.52
2023-04-22T23:32:42.768Z,1.42
2023-04-22T23:35:18.395Z,1.55
2023-04-22T23:37:53.874Z,1.73
2023-04-22T23:40:24.131Z,1.10
2023-04-22T23:42:56.922Z,1.67
2023-04-22T23:45:36.488Z,1.23
2023-04-22T23:48:25.091Z,1.20
2023-04-22T23:51:07.438Z,1.50
2023-04-22T23:54:10.984Z,1.85
2023-04-22T23:56:44.691Z,1.40
2023-04-22T23:59:25.773Z,1.43
